Time;durP1;ratioP1;P1;durP2;ratioP2;P2;SDS_P1;SDS_P2;PMS_P1;PMS_P2;Temp;Humidity;BMP_temperature;BMP_pressure;BME280_temperature;BME280_humidity;BME280_pressure;Samples;Min_cycle;Max_cycle;Signal;HPM_P1;HPM_P2
2023/06/07 00:00:49;;;;;;;4.22;2.58;;;22.00;96.70;;;;;;5039375;28;20052;-68
2023/06/07 00:03:17;;;;;;;4.57;2.35;;;22.00;96.70;;;;;;5033922;28;20768;-68
2023/06/07 00:05:46;;;;;;;3.88;2.35;;;22.00;96.70;;;;;;5042691;28;20040;-68
2023/06/07 00:08:18;;;;;;;3.30;2.95;;;21.90;96.70;;;;;;5041934;28;20045;-68
2023/06/07 00:10:46;;;;;;;3.03;1.98;;;21.90;96.70;;;;;;5040407;28;20045;-68
2023/06/07 00:13:13;;;;;;;2.85;2.53;;;21.80;96.70;;;;;;5042895;28;20059;-67
2023/06/07 00:15:41;;;;;;;5.88;2.40;;;21.80;96.70;;;;;;5042265;28;20076;-68
2023/06/07 00:18:10;;;;;;;4.78;2.65;;;21.80;96.70;;;;;;5047547;28;20060;-68
2023/06/07 00:20:38;;;;;;;5.35;2.75;;;21.80;96.70;;;;;;5042327;28;20064;-68
2023/06/07 00:23:05;;;;;;;3.55;2.15;;;21.70;96.70;;;;;;5041307;28;20063;-68
2023/06/07 00:25:35;;;;;;;3.25;2.50;;;21.60;96.70;;;;;;5037794;28;20504;-68
2023/06/07 00:28:03;;;;;;;3.00;2.42;;;21.50;96.70;;;;;;5040665;28;20502;-68
2023/06/07 00:30:31;;;;;;;5.50;2.85;;;21.60;96.70;;;;;;5031968;28;20056;-68
2023/06/07 00:32:59;;;;;;;5.60;2.72;;;21.50;96.70;;;;;;5035205;28;20438;-68
2023/06/07 00:35:27;;;;;;;4.68;2.60;;;21.50;96.70;;;;;;5038798;28;20041;-68
2023/06/07 00:37:55;;;;;;;3.20;2.60;;;21.50;96.70;;;;;;5038784;28;20044;-68
2023/06/07 00:40:23;;;;;;;4.60;2.88;;;21.50;96.70;;;;;;5040215;28;20067;-68
2023/06/07 00:42:54;;;;;;;3.40;2.15;;;21.50;96.70;;;;;;5038489;28;20033;-68
2023/06/07 00:45:22;;;;;;;5.53;2.22;;;21.40;96.70;;;;;;5041155;28;20499;-68
2023/06/07 00:47:50;;;;;;;4.00;2.20;;;21.40;96.70;;;;;;5034567;28;20036;-68
2023/06/07 00:50:19;;;;;;;4.35;2.35;;;21.40;96.70;;;;;;5040624;28;20119;-68
2023/06/07 00:52:47;;;;;;;2.53;2.30;;;21.40;96.70;;;;;;5040539;28;20056;-68
2023/06/07 00:55:16;;;;;;;3.42;2.47;;;21.30;96.70;;;;;;5037340;28;20069;-68
2023/06/07 00:57:44;;;;;;;4.10;2.75;;;21.20;96.70;;;;;;5031869;28;20045;-68
2023/06/07 01:00:15;;;;;;;5.15;2.60;;;21.20;96.70;;;;;;5036341;28;20045;-68
2023/06/07 01:02:53;;;;;;;4.43;2.15;;;21.20;96.70;;;;;;5042209;28;20037;-68
2023/06/07 01:05:23;;;;;;;2.88;2.20;;;21.30;96.70;;;;;;4999135;28;20411;-68
2023/06/07 01:07:54;;;;;;;4.07;2.55;;;21.30;96.70;;;;;;5000095;28;20042;-68
2023/06/07 01:10:23;;;;;;;5.80;2.55;;;21.30;96.70;;;;;;4999951;28;20120;-68
2023/06/07 01:12:54;;;;;;;3.95;2.80;;;21.20;96.70;;;;;;5002589;28;20092;-68
2023/06/07 01:15:25;;;;;;;4.53;2.65;;;21.20;96.70;;;;;;5001740;28;20049;-68
2023/06/07 01:17:54;;;;;;;3.85;2.22;;;21.20;96.70;;;;;;4991707;28;20136;-68
2023/06/07 01:20:24;;;;;;;4.53;2.72;;;21.20;96.70;;;;;;5000012;28;20408;-68
2023/06/07 01:22:59;;;;;;;2.90;2.40;;;21.10;96.70;;;;;;4999937;28;20050;-68
2023/06/07 01:25:29;;;;;;;5.38;2.78;;;21.10;96.70;;;;;;5001284;28;20076;-68
2023/06/07 01:28:00;;;;;;;7.00;2.58;;;21.00;96.70;;;;;;5002256;28;20034;-68
2023/06/07 01:30:31;;;;;;;4.57;2.70;;;20.90;96.70;;;;;;4999518;28;20440;-68
2023/06/07 01:33:03;;;;;;;5.22;2.60;;;20.80;96.70;;;;;;4999808;28;20053;-68
2023/06/07 01:35:32;;;;;;;4.13;2.55;;;20.80;96.70;;;;;;4993749;28;20901;-68
2023/06/07 01:38:01;;;;;;;5.55;2.55;;;20.80;96.70;;;;;;5000477;28;20046;-68
2023/06/07 01:40:34;;;;;;;6.75;2.88;;;20.70;96.70;;;;;;5001627;28;20141;-68
2023/06/07 01:43:02;;;;;;;6.38;3.20;;;20.70;96.70;;;;;;5019414;28;20116;-68
2023/06/07 01:45:31;;;;;;;5.22;2.38;;;20.70;96.70;;;;;;5005211;28;20483;-68
2023/06/07 01:47:59;;;;;;;5.30;2.80;;;20.80;96.70;;;;;;5020181;28;20080;-68
2023/06/07 01:50:27;;;;;;;3.50;2.35;;;20.90;96.70;;;;;;5003954;28;20597;-68
2023/06/07 01:52:55;;;;;;;3.58;2.03;;;20.90;96.70;;;;;;5003552;28;20037;-67
2023/06/07 01:55:24;;;;;;;5.55;2.58;;;21.00;96.70;;;;;;4996469;28;20116;-68
2023/06/07 01:58:01;;;;;;;5.22;2.95;;;20.90;96.70;;;;;;4997432;28;20070;-68
2023/06/07 02:00:35;;;;;;;6.55;3.60;;;20.90;96.70;;;;;;5001001;28;20058;-68
2023/06/07 02:03:11;;;;;;;5.47;3.05;;;20.80;96.70;;;;;;5003489;28;20510;-68
2023/06/07 02:05:50;;;;;;;7.97;3.05;;;20.90;96.70;;;;;;5037712;28;20049;-68
2023/06/07 02:08:27;;;;;;;5.20;3.08;;;20.80;96.70;;;;;;5042710;28;20111;-68
2023/06/07 02:10:56;;;;;;;4.78;3.03;;;20.70;96.70;;;;;;5040118;28;20418;-67
2023/06/07 02:13:26;;;;;;;3.15;2.85;;;20.80;96.70;;;;;;5043180;28;20053;-68
2023/06/07 02:15:54;;;;;;;3.47;2.70;;;20.80;96.70;;;;;;5044762;28;20044;-69
2023/06/07 02:18:24;;;;;;;3.38;2.60;;;20.90;96.70;;;;;;5042662;28;20041;-69
2023/06/07 02:20:53;;;;;;;3.72;2.53;;;21.00;96.70;;;;;;5027240;28;20060;-69
2023/06/07 02:23:21;;;;;;;3.88;2.47;;;21.00;96.70;;;;;;5043645;28;20068;-69
2023/06/07 02:25:50;;;;;;;4.18;2.22;;;20.90;96.70;;;;;;5027078;28;20148;-69
2023/06/07 02:28:18;;;;;;;5.00;2.53;;;20.90;96.70;;;;;;5042654;28;20388;-69
2023/06/07 02:30:47;;;;;;;6.32;2.67;;;20.90;96.70;;;;;;5042570;28;20538;-69
2023/06/07 02:33:15;;;;;;;3.45;2.38;;;20.90;96.70;;;;;;5044676;28;20041;-69
2023/06/07 02:35:44;;;;;;;4.47;2.75;;;20.90;96.70;;;;;;5041304;28;20048;-69
2023/06/07 02:38:12;;;;;;;3.92;2.67;;;20.90;96.70;;;;;;5044808;28;20051;-69
2023/06/07 02:40:41;;;;;;;3.20;2.85;;;20.90;96.70;;;;;;5017113;28;20099;-69
2023/06/07 02:43:09;;;;;;;6.57;2.92;;;20.90;96.70;;;;;;5036386;28;20087;-69
2023/06/07 02:45:37;;;;;;;5.43;3.03;;;20.90;96.70;;;;;;5025833;28;20053;-69
2023/06/07 02:48:07;;;;;;;6.25;2.88;;;20.90;96.70;;;;;;5044740;28;20550;-69
2023/06/07 02:50:35;;;;;;;4.68;2.90;;;20.80;96.70;;;;;;5044149;28;20080;-69
2023/06/07 02:53:05;;;;;;;5.28;2.58;;;20.80;96.70;;;;;;5042132;28;20055;-69
2023/06/07 02:55:34;;;;;;;4.40;3.15;;;20.70;96.70;;;;;;5040593;28;20048;-69
2023/06/07 02:58:05;;;;;;;3.70;2.58;;;20.70;96.70;;;;;;5042658;28;20458;-69
2023/06/07 03:00:35;;;;;;;6.25;2.67;;;20.70;96.70;;;;;;5038938;28;20045;-69
2023/06/07 03:03:12;;;;;;;6.57;3.17;;;20.60;96.70;;;;;;5042459;28;20067;-69
2023/06/07 03:05:48;;;;;;;5.60;2.42;;;20.50;96.70;;;;;;5035046;28;20095;-69
2023/06/07 03:08:17;;;;;;;5.43;2.58;;;20.50;96.70;;;;;;5036441;28;20513;-69
2023/06/07 03:10:45;;;;;;;4.88;2.90;;;20.50;96.70;;;;;;5054131;28;20589;-69
2023/06/07 03:13:19;;;;;;;3.83;2.78;;;20.50;96.70;;;;;;5038881;28;20170;-69
2023/06/07 03:15:47;;;;;;;3.50;2.50;;;20.50;96.70;;;;;;5043024;28;20051;-69
2023/06/07 03:18:18;;;;;;;2.63;2.30;;;20.50;96.70;;;;;;5058208;28;20127;-69
2023/06/07 03:20:53;;;;;;;4.32;2.78;;;20.50;96.70;;;;;;5041523;28;20123;-69
2023/06/07 03:23:22;;;;;;;4.00;2.60;;;20.40;96.70;;;;;;5025774;28;20384;-69
2023/06/07 03:25:51;;;;;;;4.20;2.70;;;20.30;96.70;;;;;;5039837;28;20091;-69
2023/06/07 03:28:25;;;;;;;5.30;3.10;;;20.30;96.70;;;;;;5040309;28;20076;-69
2023/06/07 03:30:53;;;;;;;4.15;2.70;;;20.30;96.70;;;;;;5023421;28;20071;-69
2023/06/07 03:33:29;;;;;;;4.45;2.40;;;20.40;96.70;;;;;;5042420;28;20043;-69
2023/06/07 03:35:58;;;;;;;4.75;2.30;;;20.40;96.70;;;;;;5041459;28;20124;-69
2023/06/07 03:38:32;;;;;;;4.55;2.53;;;20.30;96.70;;;;;;5041376;28;20033;-69
2023/06/07 03:41:01;;;;;;;4.75;2.53;;;20.30;96.70;;;;;;5041706;28;20073;-69
2023/06/07 03:43:34;;;;;;;5.80;2.35;;;20.20;96.70;;;;;;5016823;28;20049;-69
2023/06/07 03:46:03;;;;;;;4.80;2.45;;;20.30;96.70;;;;;;5041478;28;20473;-69
2023/06/07 03:48:36;;;;;;;6.70;2.28;;;20.20;96.70;;;;;;5052829;28;20045;-69
2023/06/07 03:51:06;;;;;;;4.78;2.28;;;20.30;96.70;;;;;;5040437;28;20107;-69
2023/06/07 03:53:35;;;;;;;4.32;2.40;;;20.30;96.70;;;;;;5040890;28;20047;-69
2023/06/07 03:56:04;;;;;;;6.53;2.33;;;20.30;96.70;;;;;;5040793;28;20110;-69
2023/06/07 03:58:35;;;;;;;4.70;2.50;;;20.30;96.70;;;;;;5041532;28;20064;-69
2023/06/07 04:01:10;;;;;;;5.55;2.60;;;20.30;96.70;;;;;;5025085;28;20409;-69
2023/06/07 04:03:40;;;;;;;7.40;2.60;;;20.30;96.70;;;;;;5033633;28;20064;-69
2023/06/07 04:06:09;;;;;;;4.18;2.17;;;20.30;96.70;;;;;;5033767;28;20106;-69
2023/06/07 04:08:38;;;;;;;4.57;2.75;;;20.30;96.70;;;;;;5022635;28;20682;-69
2023/06/07 04:11:08;;;;;;;4.82;2.90;;;20.30;96.70;;;;;;5036800;28;20037;-69
2023/06/07 04:13:35;;;;;;;6.30;2.75;;;20.40;96.70;;;;;;5031644;28;20124;-68
2023/06/07 04:16:04;;;;;;;5.07;2.33;;;20.30;96.70;;;;;;5040040;28;20055;-69
2023/06/07 04:18:32;;;;;;;4.65;2.35;;;20.30;96.70;;;;;;5041684;28;20141;-69
2023/06/07 04:21:02;;;;;;;4.32;2.65;;;20.30;96.70;;;;;;5039773;28;20056;-68
2023/06/07 04:23:32;;;;;;;5.18;2.60;;;20.30;96.70;;;;;;5042565;28;20037;-68
2023/06/07 04:26:04;;;;;;;6.00;2.50;;;20.30;96.70;;;;;;5033202;28;20490;-68
2023/06/07 04:28:33;;;;;;;5.93;2.50;;;20.20;96.70;;;;;;5038227;28;20052;-68
2023/06/07 04:31:02;;;;;;;5.38;2.50;;;20.30;96.70;;;;;;5041013;28;20059;-68
2023/06/07 04:33:32;;;;;;;5.35;2.33;;;20.30;96.70;;;;;;5040675;28;20045;-68
2023/06/07 04:36:03;;;;;;;3.85;2.50;;;20.40;96.70;;;;;;5042652;28;20385;-68
2023/06/07 04:38:32;;;;;;;5.85;2.60;;;20.40;96.70;;;;;;5041828;28;20041;-68
2023/06/07 04:41:08;;;;;;;5.65;2.60;;;20.40;96.70;;;;;;5050394;28;20102;-68
2023/06/07 04:43:48;;;;;;;3.63;2.60;;;20.40;96.70;;;;;;5041038;28;20045;-68
2023/06/07 04:46:25;;;;;;;3.75;2.20;;;20.30;96.70;;;;;;5042352;28;20044;-68
2023/06/07 04:48:54;;;;;;;3.42;2.35;;;20.30;96.70;;;;;;5056761;28;20040;-68
2023/06/07 04:51:26;;;;;;;6.82;2.65;;;20.50;96.70;;;;;;5048109;28;20142;-68
2023/06/07 04:54:01;;;;;;;5.05;2.22;;;20.50;96.70;;;;;;5041174;28;20719;-68
2023/06/07 04:56:34;;;;;;;3.03;2.58;;;20.60;96.70;;;;;;5042082;28;20048;-68
2023/06/07 04:59:04;;;;;;;8.80;2.60;;;20.70;96.70;;;;;;5055377;28;20375;-68
2023/06/07 05:01:36;;;;;;;4.25;2.83;;;20.70;96.70;;;;;;5016599;28;20053;-68
2023/06/07 05:04:05;;;;;;;6.53;2.70;;;20.60;96.70;;;;;;5039951;28;20056;-67
2023/06/07 05:06:49;;;;;;;5.72;2.63;;;20.70;96.70;;;;;;5039813;28;20055;-68
2023/06/07 05:09:17;;;;;;;9.00;2.63;;;20.70;96.70;;;;;;5039806;28;20055;-67
2023/06/07 05:11:44;;;;;;;3.88;2.58;;;20.90;96.70;;;;;;5039765;28;20068;-68
2023/06/07 05:14:12;;;;;;;4.55;2.15;;;21.00;96.70;;;;;;5040126;28;20465;-68
2023/06/07 05:16:43;;;;;;;5.10;2.40;;;21.00;96.70;;;;;;5031330;28;20077;-68
2023/06/07 05:19:19;;;;;;;5.57;3.00;;;21.10;96.70;;;;;;5036213;28;20686;-68
2023/06/07 05:21:50;;;;;;;4.57;2.90;;;21.10;96.70;;;;;;5042370;28;20043;-68
2023/06/07 05:24:19;;;;;;;5.95;3.35;;;21.00;96.70;;;;;;5046225;28;20045;-68
2023/06/07 05:26:47;;;;;;;4.22;3.25;;;21.10;96.70;;;;;;5044081;28;20041;-68
2023/06/07 05:29:15;;;;;;;7.20;3.28;;;21.10;96.70;;;;;;5048720;28;20056;-68
2023/06/07 05:31:43;;;;;;;3.08;2.60;;;21.00;96.70;;;;;;5040975;28;20064;-68
2023/06/07 05:34:11;;;;;;;5.53;3.05;;;21.00;96.70;;;;;;5035317;28;20136;-68
2023/06/07 05:36:40;;;;;;;4.43;3.10;;;21.10;96.70;;;;;;5036082;28;20065;-68
2023/06/07 05:39:09;;;;;;;6.05;3.03;;;21.20;96.70;;;;;;5040612;28;20037;-68
2023/06/07 05:41:37;;;;;;;8.25;3.10;;;21.10;96.70;;;;;;5044506;28;20079;-68
2023/06/07 05:44:06;;;;;;;6.82;3.50;;;21.10;96.70;;;;;;5039760;28;20045;-68
2023/06/07 05:46:34;;;;;;;9.07;4.15;;;21.20;96.70;;;;;;5038682;28;20174;-68
2023/06/07 05:49:03;;;;;;;6.22;3.20;;;21.20;96.70;;;;;;5044165;28;20041;-68
2023/06/07 05:51:31;;;;;;;8.35;3.50;;;21.20;96.70;;;;;;5041728;28;21573;-68
2023/06/07 05:53:59;;;;;;;7.45;3.53;;;21.30;96.70;;;;;;5045706;28;20041;-68
2023/06/07 05:56:29;;;;;;;5.22;3.55;;;21.30;96.70;;;;;;5045648;28;20041;-68
2023/06/07 05:58:57;;;;;;;6.72;4.50;;;21.30;96.70;;;;;;5039399;28;20040;-68
2023/06/07 06:01:25;;;;;;;8.18;3.72;;;21.30;96.70;;;;;;5038109;28;20116;-68
2023/06/07 06:03:52;;;;;;;10.88;3.78;;;21.30;96.70;;;;;;5039280;28;20049;-68
2023/06/07 06:06:25;;;;;;;7.55;3.75;;;21.20;96.70;;;;;;5036963;28;20510;-68
2023/06/07 06:08:54;;;;;;;6.60;4.00;;;21.30;96.70;;;;;;5041960;28;20515;-69
2023/06/07 06:11:22;;;;;;;7.22;3.40;;;21.30;96.70;;;;;;5043830;28;20052;-68
2023/06/07 06:13:51;;;;;;;4.03;3.30;;;21.40;96.70;;;;;;5044992;28;20099;-70
2023/06/07 06:16:19;;;;;;;5.35;3.90;;;21.50;96.70;;;;;;5025232;28;20396;-68
2023/06/07 06:18:48;;;;;;;5.40;3.72;;;21.60;96.70;;;;;;5043568;28;20037;-68
2023/06/07 06:21:17;;;;;;;7.20;3.92;;;21.70;96.70;;;;;;5041802;28;20059;-68
2023/06/07 06:23:45;;;;;;;4.55;3.85;;;21.80;96.70;;;;;;5044229;28;20041;-68
2023/06/07 06:26:12;;;;;;;7.20;4.30;;;22.00;96.70;;;;;;5045174;28;20048;-68
2023/06/07 06:28:41;;;;;;;4.95;3.88;;;22.10;96.70;;;;;;5042926;28;20531;-67
2023/06/07 06:31:36;;;;;;;5.25;3.95;;;22.30;96.70;;;;;;5041748;28;20049;-68
2023/06/07 06:34:05;;;;;;;6.70;4.80;;;22.40;96.70;;;;;;5040800;28;20140;-69
2023/06/07 06:36:33;;;;;;;4.97;4.00;;;22.50;96.70;;;;;;5043683;28;20049;-69
2023/06/07 06:39:03;;;;;;;5.00;3.70;;;22.60;96.70;;;;;;5045023;28;20771;-68
2023/06/07 06:41:32;;;;;;;6.15;4.10;;;22.80;96.70;;;;;;5041733;28;20056;-69
2023/06/07 06:44:03;;;;;;;4.88;4.35;;;22.90;96.70;;;;;;5042790;28;20527;-69
2023/06/07 06:46:30;;;;;;;5.00;3.63;;;23.00;96.70;;;;;;5044528;28;20049;-69
2023/06/07 06:49:00;;;;;;;4.65;3.67;;;23.00;96.70;;;;;;5033026;28;20550;-69
2023/06/07 06:51:39;;;;;;;5.35;3.60;;;23.10;96.70;;;;;;5041830;28;20878;-69
2023/06/07 06:54:12;;;;;;;4.25;3.80;;;23.00;96.70;;;;;;5044706;28;20106;-70
2023/06/07 06:56:40;;;;;;;3.95;3.55;;;23.20;96.70;;;;;;5049446;28;20069;-70
2023/06/07 06:59:08;;;;;;;5.47;3.85;;;23.30;96.70;;;;;;5043450;28;20531;-70
2023/06/07 07:01:43;;;;;;;4.50;3.85;;;23.20;96.70;;;;;;5043631;28;20044;-69
2023/06/07 07:04:13;;;;;;;6.40;3.47;;;23.20;96.70;;;;;;5038238;28;20176;-69
2023/06/07 07:06:41;;;;;;;4.85;3.72;;;23.10;96.70;;;;;;5043814;28;20045;-69
2023/06/07 07:09:10;;;;;;;5.80;3.65;;;23.20;96.70;;;;;;5044142;28;20561;-68
2023/06/07 07:11:38;;;;;;;5.25;3.63;;;23.20;96.70;;;;;;5043382;28;20045;-69
2023/06/07 07:14:06;;;;;;;4.28;3.88;;;23.20;96.70;;;;;;5035912;28;20647;-68
2023/06/07 07:16:34;;;;;;;5.90;3.80;;;23.30;96.70;;;;;;5042387;28;20491;-68
2023/06/07 07:19:07;;;;;;;4.13;3.28;;;23.30;96.70;;;;;;5039869;28;20052;-68
2023/06/07 07:21:37;;;;;;;5.10;3.72;;;23.30;96.70;;;;;;5044187;28;20047;-68
2023/06/07 07:24:26;;;;;;;3.63;3.33;;;23.30;96.70;;;;;;5041987;28;20673;-68
2023/06/07 07:27:12;;;;;;;5.78;3.80;;;23.40;96.70;;;;;;5042623;28;20056;-68
2023/06/07 07:29:57;;;;;;;4.05;3.65;;;23.50;96.70;;;;;;5043073;28;20155;-68
2023/06/07 07:32:28;;;;;;;4.75;3.40;;;23.40;96.70;;;;;;5043601;28;20227;-69
2023/06/07 07:35:07;;;;;;;4.35;3.45;;;23.50;96.70;;;;;;5042134;28;20059;-69
2023/06/07 07:38:00;;;;;;;4.65;4.25;;;23.50;96.70;;;;;;5042944;28;20505;-69
2023/06/07 07:41:07;;;;;;;3.90;3.60;;;23.50;96.70;;;;;;5041137;28;20109;-69
2023/06/07 07:43:56;;;;;;;4.30;3.22;;;23.40;96.70;;;;;;5044011;28;20057;-69
2023/06/07 07:46:31;;;;;;;;;;;23.30;96.70;;;;;;5042885;28;20045;-70
2023/06/07 07:49:11;;;;;;;3.90;3.60;;;23.40;96.70;;;;;;4999844;28;19932;-69
2023/06/07 07:51:47;;;;;;;4.63;3.50;;;23.30;96.70;;;;;;4992154;28;20463;-68
2023/06/07 07:54:39;;;;;;;5.00;3.67;;;23.20;96.70;;;;;;4984093;28;20415;-68
2023/06/07 07:57:46;;;;;;;3.80;3.50;;;23.20;96.70;;;;;;5000696;28;20148;-68
2023/06/07 08:01:08;;;;;;;3.33;2.70;;;23.30;96.70;;;;;;4954848;28;20054;-68
2023/06/07 08:04:22;;;;;;;5.57;3.50;;;23.40;96.70;;;;;;4973871;28;20054;-68
2023/06/07 08:07:16;;;;;;;4.07;3.60;;;23.60;96.70;;;;;;4959262;28;20046;-68
2023/06/07 08:10:06;;;;;;;3.67;3.35;;;23.80;96.70;;;;;;4961603;28;20890;-68
2023/06/07 08:13:07;;;;;;;5.32;3.40;;;23.80;96.70;;;;;;4940124;29;20069;-69
2023/06/07 08:15:54;;;;;;;3.95;3.00;;;23.90;96.70;;;;;;4937013;29;20812;-68
2023/06/07 08:19:08;;;;;;;3.42;2.60;;;24.10;96.70;;;;;;4926580;29;20457;-68
2023/06/07 08:21:53;;;;;;;3.03;2.63;;;24.30;96.70;;;;;;4939777;29;20055;-68
2023/06/07 08:25:12;;;;;;;2.53;2.33;;;24.30;96.70;;;;;;4937002;29;20043;-69
2023/06/07 08:27:56;;;;;;;2.50;2.30;;;24.40;96.70;;;;;;4971735;28;20130;-68
2023/06/07 08:30:50;;;;;;;;;;;24.60;96.70;;;;;;4979005;28;20141;-68
2023/06/07 08:33:43;;;;;;;2.70;2.50;;;24.70;96.70;;;;;;4884533;29;20282;-68
2023/06/07 08:36:21;;;;;;;3.63;2.53;;;24.70;96.70;;;;;;4866588;29;20112;-68
2023/06/07 08:39:02;;;;;;;2.97;2.30;;;24.80;96.70;;;;;;4899947;29;20052;-69
2023/06/07 08:42:57;;;;;;;2.38;2.13;;;25.00;96.70;;;;;;4904744;29;20515;-69
2023/06/07 08:45:46;;;;;;;3.75;2.75;;;25.20;96.70;;;;;;4907922;29;20521;-69
2023/06/07 08:48:32;;;;;;;4.40;3.72;;;25.20;96.70;;;;;;4941562;29;20222;-69
2023/06/07 08:51:42;;;;;;;3.53;3.22;;;25.00;96.70;;;;;;4941309;28;20066;-69
2023/06/07 08:54:22;;;;;;;4.00;3.08;;;24.90;96.70;;;;;;4921526;29;20124;-69
2023/06/07 08:57:26;;;;;;;3.88;2.70;;;24.90;96.70;;;;;;4909129;29;20907;-69
2023/06/07 09:00:03;;;;;;;3.60;3.13;;;25.10;96.70;;;;;;4917666;29;20097;-69
2023/06/07 09:03:12;;;;;;;5.95;3.38;;;25.30;96.70;;;;;;4917692;29;20545;-69
2023/06/07 09:06:00;;;;;;;4.47;3.00;;;25.50;96.70;;;;;;4914773;29;20715;-70
2023/06/07 09:09:07;;;;;;;6.82;3.20;;;25.60;96.70;;;;;;4893788;29;20051;-69
2023/06/07 09:11:45;;;;;;;4.10;2.88;;;25.50;96.70;;;;;;4935552;29;20095;-69
2023/06/07 09:14:47;;;;;;;5.13;3.75;;;25.20;96.70;;;;;;4931294;28;20055;-69
2023/06/07 09:18:07;;;;;;;3.97;3.22;;;25.00;96.70;;;;;;4941874;29;20054;-69
2023/06/07 09:21:20;;;;;;;4.68;3.30;;;25.00;96.70;;;;;;4896737;29;20057;-69
2023/06/07 09:24:35;;;;;;;3.85;3.00;;;25.20;96.70;;;;;;4834476;29;20091;-69
2023/06/07 09:27:38;;;;;;;3.88;3.55;;;25.40;96.70;;;;;;4868606;29;20595;-69
2023/06/07 09:34:04;;;;;;;4.97;3.75;;;25.20;96.70;;;;;;4812042;29;20148;-70
2023/06/07 09:37:06;;;;;;;4.85;3.60;;;25.10;96.70;;;;;;4831879;29;20069;-70
2023/06/07 09:40:18;;;;;;;10.07;4.97;;;25.20;96.70;;;;;;4828211;29;20240;-70
2023/06/07 09:43:11;;;;;;;7.47;4.80;;;25.50;96.70;;;;;;4801447;29;20090;-70
2023/06/07 09:46:16;;;;;;;9.30;4.95;;;25.60;96.70;;;;;;4831394;29;20062;-70
2023/06/07 09:52:18;;;;;;;9.00;4.97;;;26.10;96.70;;;;;;4819327;29;20057;-71
2023/06/07 09:55:47;;;;;;;5.28;4.20;;;26.20;96.70;;;;;;4850508;29;20978;-71
2023/06/07 09:58:26;;;;;;;;;;;26.30;96.70;;;;;;4849180;29;20451;-71
2023/06/07 10:01:42;;;;;;;5.72;4.05;;;26.50;96.70;;;;;;4883317;29;19973;-70
2023/06/07 10:04:34;;;;;;;10.07;4.60;;;26.50;96.70;;;;;;4917380;29;20056;-71
2023/06/07 10:07:19;;;;;;;5.20;3.90;;;26.60;96.70;;;;;;4872416;29;20588;-71
2023/06/07 10:10:35;;;;;;;5.93;4.13;;;26.50;96.70;;;;;;4925219;29;20067;-71
2023/06/07 10:13:43;;;;;;;6.35;3.58;;;26.60;96.70;;;;;;4924726;29;20392;-71
2023/06/07 10:16:45;;;;;;;4.72;3.50;;;26.70;96.70;;;;;;4923778;29;20146;-71
2023/06/07 10:19:37;;;;;;;5.55;4.13;;;26.80;96.70;;;;;;4896890;29;20055;-71
2023/06/07 10:22:49;;;;;;;6.03;3.33;;;26.90;96.70;;;;;;4940776;28;20050;-70
2023/06/07 10:25:49;;;;;;;5.88;3.45;;;27.00;96.70;;;;;;4971939;28;20539;-70
2023/06/07 10:28:32;;;;;;;4.13;2.85;;;26.90;96.70;;;;;;4997623;28;20599;-70
2023/06/07 10:31:34;;;;;;;3.40;3.10;;;26.90;96.70;;;;;;4984203;28;20058;-70
2023/06/07 10:34:33;;;;;;;4.47;2.60;;;26.50;96.70;;;;;;4999576;28;20557;-70
2023/06/07 10:37:12;;;;;;;2.92;2.63;;;26.30;96.70;;;;;;4994192;28;20065;-70
2023/06/07 10:40:33;;;;;;;4.80;2.72;;;26.10;96.70;;;;;;4992514;28;20046;-70
2023/06/07 10:43:23;;;;;;;3.58;2.42;;;26.00;96.70;;;;;;4998480;28;20057;-70
2023/06/07 10:46:42;;;;;;;4.20;2.40;;;26.00;96.70;;;;;;5010425;28;20507;-69
2023/06/07 10:49:58;;;;;;;3.65;2.50;;;26.20;96.70;;;;;;4946393;28;20047;-70
2023/06/07 10:53:10;;;;;;;3.70;2.55;;;26.70;96.70;;;;;;4965745;28;20054;-71
2023/06/07 10:56:36;;;;;;;2.60;2.27;;;27.10;96.70;;;;;;4965644;28;20165;-71
2023/06/07 10:59:44;;;;;;;3.53;2.20;;;27.30;96.70;;;;;;4962802;28;20114;-70
2023/06/07 11:02:50;;;;;;;3.08;2.20;;;27.60;96.70;;;;;;4966552;28;20050;-71
2023/06/07 11:06:06;;;;;;;3.38;1.90;;;27.50;96.70;;;;;;4989471;28;20064;-70
2023/06/07 11:09:19;;;;;;;2.47;2.08;;;27.70;96.70;;;;;;4998126;28;20161;-71
2023/06/07 11:11:59;;;;;;;2.25;1.80;;;27.80;96.70;;;;;;5011952;28;20476;-70
2023/06/07 11:18:53;;;;;;;3.08;2.17;;;27.90;96.70;;;;;;4979962;28;20636;-69
2023/06/07 11:21:22;;;;;;;3.08;2.50;;;27.60;96.70;;;;;;4972660;28;20060;-69
2023/06/07 11:24:09;;;;;;;2.92;2.63;;;27.80;96.70;;;;;;4981501;28;20046;-69
2023/06/07 11:26:37;;;;;;;2.80;2.13;;;27.50;96.70;;;;;;4976247;28;20051;-70
2023/06/07 11:29:08;;;;;;;3.83;2.65;;;27.30;96.70;;;;;;4980633;28;20117;-70
2023/06/07 11:31:36;;;;;;;3.60;2.30;;;27.20;96.70;;;;;;4982307;28;20054;-70
2023/06/07 11:34:06;;;;;;;3.67;2.25;;;27.70;96.70;;;;;;4981371;28;20042;-70
2023/06/07 11:36:34;;;;;;;3.35;2.25;;;28.10;96.70;;;;;;4982482;28;20582;-70
2023/06/07 11:39:08;;;;;;;2.92;2.30;;;28.20;96.70;;;;;;4982588;28;20042;-70
2023/06/07 11:41:38;;;;;;;4.55;2.20;;;28.20;96.70;;;;;;4982820;28;20367;-70
2023/06/07 11:44:07;;;;;;;2.70;2.50;;;28.10;96.70;;;;;;4964339;28;20096;-71
2023/06/07 11:46:36;;;;;;;3.15;2.60;;;28.10;96.70;;;;;;4981926;28;20589;-71
2023/06/07 11:49:06;;;;;;;2.75;2.35;;;27.60;96.70;;;;;;4981012;28;20097;-70
2023/06/07 11:51:35;;;;;;;2.85;2.45;;;27.50;96.70;;;;;;4981661;28;20489;-70
2023/06/07 11:54:03;;;;;;;4.45;2.67;;;27.70;96.70;;;;;;4982147;28;20069;-70
2023/06/07 11:56:36;;;;;;;2.85;2.55;;;27.40;96.70;;;;;;4964059;28;20051;-70
2023/06/07 11:59:06;;;;;;;3.88;2.83;;;27.20;96.70;;;;;;4964070;28;20689;-71
2023/06/07 12:01:39;;;;;;;3.22;2.60;;;27.00;96.70;;;;;;4976835;28;20056;-69
2023/06/07 12:04:10;;;;;;;2.63;2.33;;;27.10;96.70;;;;;;4981098;28;20058;-71
2023/06/07 12:06:39;;;;;;;3.40;2.20;;;27.40;96.70;;;;;;4973892;28;20054;-70
2023/06/07 12:09:11;;;;;;;4.82;2.03;;;27.50;96.70;;;;;;4981726;28;20038;-70
2023/06/07 12:11:40;;;;;;;2.95;2.35;;;27.50;96.70;;;;;;4983259;28;20408;-70
2023/06/07 12:14:09;;;;;;;4.60;2.40;;;27.40;96.70;;;;;;4982942;28;20041;-70
2023/06/07 12:16:39;;;;;;;3.35;2.20;;;27.80;96.70;;;;;;4964532;28;20550;-70
2023/06/07 12:19:07;;;;;;;2.85;2.42;;;27.90;96.70;;;;;;4982485;28;20054;-70
2023/06/07 12:21:36;;;;;;;2.50;2.08;;;28.10;96.70;;;;;;4982569;28;20137;-67
2023/06/07 12:24:05;;;;;;;2.75;2.35;;;28.10;96.70;;;;;;4970212;28;20144;-68
2023/06/07 12:26:36;;;;;;;2.25;1.80;;;27.90;96.70;;;;;;4985395;28;20509;-68
2023/06/07 12:29:04;;;;;;;4.07;2.30;;;28.00;96.70;;;;;;4981258;28;20117;-68
2023/06/07 12:31:37;;;;;;;3.20;2.53;;;28.10;96.70;;;;;;4981348;28;20054;-68
2023/06/07 12:34:10;;;;;;;2.30;2.05;;;28.10;96.70;;;;;;4981173;28;20046;-69
2023/06/07 12:36:50;;;;;;;3.30;2.20;;;28.20;96.70;;;;;;4982239;28;20046;-69
2023/06/07 12:39:28;;;;;;;2.63;2.10;;;28.20;96.70;;;;;;4965986;28;20089;-69
2023/06/07 12:42:02;;;;;;;2.00;1.88;;;28.30;96.70;;;;;;4983746;28;20053;-69
2023/06/07 12:44:33;;;;;;;2.80;1.60;;;28.30;96.70;;;;;;4979287;28;20062;-68
2023/06/07 12:47:04;;;;;;;2.10;1.90;;;28.40;96.70;;;;;;4980839;28;20246;-69
2023/06/07 12:49:36;;;;;;;2.58;2.28;;;28.30;96.70;;;;;;4979998;28;20058;-71
2023/06/07 12:52:08;;;;;;;4.22;2.45;;;28.30;96.70;;;;;;4983377;28;20078;-69
2023/06/07 12:54:42;;;;;;;3.38;1.73;;;28.40;96.70;;;;;;4965656;28;20058;-71
2023/06/07 12:57:13;;;;;;;2.75;2.25;;;28.40;96.70;;;;;;4981585;28;20141;-69
2023/06/07 12:59:44;;;;;;;2.60;1.90;;;28.50;96.70;;;;;;4963758;28;20632;-69
2023/06/07 13:02:14;;;;;;;3.35;2.05;;;28.60;96.70;;;;;;4979885;28;20085;-69
2023/06/07 13:04:44;;;;;;;2.10;1.90;;;28.60;96.70;;;;;;4982208;28;20318;-69
2023/06/07 13:07:15;;;;;;;3.00;2.40;;;28.80;96.70;;;;;;4982526;28;20688;-69
2023/06/07 13:09:45;;;;;;;2.15;1.95;;;29.00;96.70;;;;;;4983329;28;20085;-69
2023/06/07 13:12:15;;;;;;;2.45;2.25;;;29.20;96.70;;;;;;4982667;28;20050;-69
2023/06/07 13:14:47;;;;;;;1.98;1.83;;;29.30;96.70;;;;;;4981715;28;20359;-69
2023/06/07 13:17:17;;;;;;;2.25;1.90;;;29.70;96.70;;;;;;4975272;28;20074;-69
2023/06/07 13:19:47;;;;;;;2.53;2.30;;;29.70;96.70;;;;;;4963541;28;20129;-69
2023/06/07 13:22:20;;;;;;;2.85;1.80;;;29.40;96.70;;;;;;4962937;28;20047;-69
2023/06/07 13:24:50;;;;;;;2.53;2.10;;;29.60;96.70;;;;;;4955340;28;20600;-69
2023/06/07 13:27:20;;;;;;;2.15;1.95;;;29.80;96.70;;;;;;4963554;28;20050;-69
2023/06/07 13:29:50;;;;;;;2.40;2.20;;;29.60;96.70;;;;;;4962548;28;20053;-69
2023/06/07 13:32:21;;;;;;;2.88;1.95;;;29.70;96.70;;;;;;4974220;28;20055;-69
2023/06/07 13:34:52;;;;;;;3.95;2.42;;;29.80;96.70;;;;;;4960788;28;20101;-69
2023/06/07 13:37:25;;;;;;;2.38;1.77;;;30.00;96.70;;;;;;4962348;28;20047;-69
2023/06/07 13:39:55;;;;;;;2.17;1.98;;;30.10;96.70;;;;;;4958237;28;20687;-70
2023/06/07 13:42:26;;;;;;;1.80;1.65;;;30.20;96.70;;;;;;4981942;28;20057;-69
2023/06/07 13:44:57;;;;;;;3.70;1.80;;;30.30;96.70;;;;;;4965897;28;20054;-69
2023/06/07 13:47:28;;;;;;;3.35;1.80;;;30.30;96.70;;;;;;4964278;28;20054;-69
2023/06/07 13:49:59;;;;;;;2.90;1.90;;;30.60;96.70;;;;;;4966410;28;20043;-69